createdAt,value
2017-04-10T00:00:09.072Z,21.97
2017-04-10T00:00:23.241Z,22.05
2017-04-10T00:00:37.355Z,21.96
2017-04-10T00:00:51.480Z,21.99
2017-04-10T00:01:05.650Z,21.94
2017-04-10T00:01:20.337Z,21.92
2017-04-10T00:01:34.541Z,21.96
2017-04-10T00:02:19.668Z,21.86
2017-04-10T00:02:33.775Z,21.83
2017-04-10T00:02:47.911Z,21.9
2017-04-10T00:03:02.249Z,21.86
2017-04-10T00:03:16.398Z,21.86
2017-04-10T00:03:30.563Z,21.92
2017-04-10T00:03:44.730Z,21.9
2017-04-10T00:03:58.818Z,21.9
2017-04-10T00:04:12.929Z,21.85
2017-04-10T00:04:37.369Z,21.86
2017-04-10T00:04:53.541Z,21.83
2017-04-10T00:05:38.911Z,21.78
2017-04-10T00:05:53.109Z,21.85
2017-04-10T00:06:07.496Z,21.89
2017-04-10T00:06:21.682Z,21.89
2017-04-10T00:06:35.891Z,21.9
2017-04-10T00:06:50.078Z,21.83
2017-04-10T00:07:04.266Z,21.86
2017-04-10T00:07:18.415Z,21.85
2017-04-10T00:07:32.541Z,21.89
2017-04-10T00:07:46.940Z,21.86
2017-04-10T00:08:01.087Z,21.83
2017-04-10T00:08:15.290Z,21.89
2017-04-10T00:08:29.495Z,21.82
2017-04-10T00:09:28.710Z,21.93
2017-04-10T00:09:42.904Z,21.9
2017-04-10T00:09:57.312Z,21.83
2017-04-10T00:10:42.493Z,21.92
2017-04-10T00:10:56.628Z,21.89
2017-04-10T00:11:11.331Z,21.9
2017-04-10T00:11:25.504Z,21.92
2017-04-10T00:12:41.816Z,21.82
2017-04-10T00:12:55.997Z,21.89
2017-04-10T00:13:10.127Z,21.83
2017-04-10T00:13:24.277Z,21.83
2017-04-10T00:13:38.422Z,21.8
2017-04-10T00:13:52.590Z,21.83
2017-04-10T00:14:37.817Z,21.85
2017-04-10T00:14:51.983Z,21.93
2017-04-10T00:15:06.061Z,21.96
2017-04-10T00:15:20.253Z,21.89
2017-04-10T00:15:34.379Z,21.93
2017-04-10T00:15:48.535Z,21.96
2017-04-10T00:16:02.720Z,21.89
2017-04-10T00:16:16.905Z,21.86
2017-04-10T00:16:31.121Z,21.86
2017-04-10T00:17:16.259Z,21.83
2017-04-10T00:17:30.364Z,21.89
2017-04-10T00:17:44.457Z,21.89
2017-04-10T00:17:58.588Z,21.78
2017-04-10T00:18:12.743Z,21.92
2017-04-10T00:18:26.825Z,21.89
2017-04-10T00:18:40.939Z,21.9
2017-04-10T00:18:55.085Z,21.83
2017-04-10T00:19:09.256Z,21.9
2017-04-10T00:19:23.322Z,21.83
2017-04-10T00:19:37.512Z,21.83
2017-04-10T00:20:22.668Z,21.86
2017-04-10T00:20:36.772Z,21.77
2017-04-10T00:20:50.965Z,21.85
2017-04-10T00:21:36.463Z,21.82
2017-04-10T00:21:50.636Z,21.92
2017-04-10T00:22:04.839Z,21.89
2017-04-10T00:22:19.064Z,21.85
2017-04-10T00:22:33.242Z,21.94
2017-04-10T00:22:47.393Z,21.86
2017-04-10T00:23:01.564Z,21.86
2017-04-10T00:23:15.708Z,21.89
2017-04-10T00:23:29.850Z,21.9
2017-04-10T00:23:44.054Z,21.83
2017-04-10T00:23:58.189Z,21.9
2017-04-10T00:24:12.406Z,21.96
2017-04-10T00:25:23.249Z,21.85
2017-04-10T00:26:08.625Z,21.94
2017-04-10T00:26:53.835Z,21.94
2017-04-10T00:28:10.429Z,21.92
2017-04-10T00:28:24.761Z,21.97
2017-04-10T00:28:38.889Z,22.05
2017-04-10T00:28:53.065Z,22
2017-04-10T00:30:03.883Z,21.92
2017-04-10T00:30:49.222Z,22.02
2017-04-10T00:31:03.331Z,21.97
2017-04-10T00:31:17.428Z,22.07
2017-04-10T00:31:31.631Z,22.05
2017-04-10T00:31:45.893Z,21.99
2017-04-10T00:32:45.176Z,22.08
2017-04-10T00:32:59.308Z,22.11
2017-04-10T00:33:44.433Z,22.22
2017-04-10T00:33:58.584Z,22.22
2017-04-10T00:34:12.775Z,22.22
2017-04-10T00:34:26.908Z,22.2
2017-04-10T00:34:41.017Z,22.24
2017-04-10T00:35:26.148Z,22.09
2017-04-10T00:36:11.280Z,22.11
2017-04-10T00:36:25.445Z,22.07
2017-04-10T00:36:39.578Z,22.12
2017-04-10T00:36:53.931Z,22.09
2017-04-10T00:37:08.077Z,22.08
2017-04-10T00:37:22.422Z,22.11
2017-04-10T00:37:36.554Z,22.11
2017-04-10T00:37:50.672Z,22.14
2017-04-10T00:38:04.790Z,22.11
2017-04-10T00:38:49.877Z,22.14
2017-04-10T00:39:03.994Z,22.12
2017-04-10T00:39:18.068Z,22.08
2017-04-10T00:39:32.219Z,22.16
2017-04-10T00:39:46.364Z,22.14
2017-04-10T00:41:02.499Z,22.08
2017-04-10T00:41:47.678Z,22.09
2017-04-10T00:42:01.837Z,22.05
2017-04-10T00:42:15.976Z,22.11
2017-04-10T00:42:30.206Z,22.15
2017-04-10T00:43:15.286Z,22.12
2017-04-10T00:43:29.397Z,22.16
2017-04-10T00:44:14.503Z,22.15
2017-04-10T00:44:28.638Z,22.14
2017-04-10T00:44:42.831Z,22.18
2017-04-10T00:44:56.969Z,22.22
2017-04-10T00:45:11.114Z,22.22
2017-04-10T00:46:10.504Z,22.24
2017-04-10T00:46:24.669Z,22.27
2017-04-10T00:46:38.821Z,22.31
2017-04-10T00:47:19.426Z,22.26
2017-04-10T00:47:33.599Z,22.27
2017-04-10T00:49:03.827Z,22.3
2017-04-10T00:49:17.968Z,22.29
2017-04-10T00:49:32.133Z,22.31
2017-04-10T00:49:46.308Z,22.29
2017-04-10T00:50:00.478Z,22.29
2017-04-10T00:50:14.579Z,22.24
2017-04-10T00:50:28.728Z,22.24
2017-04-10T00:50:42.913Z,22.29
2017-04-10T00:52:18.734Z,22.18
2017-04-10T00:52:32.876Z,22.2
2017-04-10T00:52:47.072Z,22.16
2017-04-10T00:53:01.173Z,22.22
2017-04-10T00:53:15.231Z,22.23
2017-04-10T00:54:31.848Z,22.09
2017-04-10T00:54:45.912Z,22.16
2017-04-10T00:55:00.091Z,22.09
2017-04-10T00:55:14.207Z,22.11
2017-04-10T00:55:28.342Z,22.16
2017-04-10T00:55:42.555Z,22.16
2017-04-10T00:55:56.725Z,22.16
2017-04-10T00:56:10.852Z,22.12
2017-04-10T00:57:27.029Z,22.12
2017-04-10T00:57:41.184Z,22.05
2017-04-10T00:58:40.518Z,22.02
2017-04-10T00:59:45.077Z,22.05
2017-04-10T00:59:59.272Z,22.09
2017-04-10T01:01:29.479Z,22
2017-04-10T01:02:14.661Z,22.02
2017-04-10T01:02:28.755Z,22.02
2017-04-10T01:02:42.849Z,22
2017-04-10T01:02:57.271Z,22
2017-04-10T01:03:11.437Z,22
2017-04-10T01:03:25.646Z,21.99
2017-04-10T01:05:07.658Z,22.07
2017-04-10T01:05:52.833Z,22.05
2017-04-10T01:06:07.032Z,22.08
2017-04-10T01:06:21.190Z,22.15
2017-04-10T01:06:35.323Z,22.07
2017-04-10T01:06:49.453Z,22.07
2017-04-10T01:07:03.610Z,22.11
2017-04-10T01:07:17.785Z,22.11
2017-04-10T01:07:32.160Z,22.11
2017-04-10T01:07:46.375Z,22.12
2017-04-10T01:08:00.592Z,22.11
2017-04-10T01:08:14.748Z,22.16
2017-04-10T01:08:28.900Z,22.09
2017-04-10T01:09:14.092Z,22.2
2017-04-10T01:10:31.829Z,22.12
2017-04-10T01:10:46.006Z,22.16
2017-04-10T01:11:00.144Z,22.15
2017-04-10T01:11:14.325Z,22.15
2017-04-10T01:11:59.503Z,22.11
2017-04-10T01:12:13.684Z,22.12
2017-04-10T01:12:27.832Z,22.08
2017-04-10T01:12:41.975Z,22.27
2017-04-10T01:13:30.593Z,22.18
2017-04-10T01:13:44.786Z,22.22
2017-04-10T01:13:58.987Z,22.18
2017-04-10T01:14:13.116Z,22.2
2017-04-10T01:14:27.259Z,22.22
2017-04-10T01:14:41.370Z,22.18
2017-04-10T01:15:37.276Z,22.24
2017-04-10T01:15:51.458Z,22.24
2017-04-10T01:16:05.653Z,22.15
2017-04-10T01:16:50.775Z,22.23
2017-04-10T01:17:04.895Z,22.23
2017-04-10T01:17:19.027Z,22.22
2017-04-10T01:18:04.158Z,22.18
2017-04-10T01:18:18.374Z,22.2
2017-04-10T01:18:32.492Z,22.23
2017-04-10T01:18:46.674Z,22.15
2017-04-10T01:19:00.875Z,22.18
2017-04-10T01:19:15.034Z,22.18
2017-04-10T01:19:29.458Z,22.24
2017-04-10T01:19:43.655Z,22.2
2017-04-10T01:19:57.838Z,22.22
2017-04-10T01:20:12.028Z,22.11
2017-04-10T01:21:11.520Z,22.12
2017-04-10T01:21:25.666Z,22.23
2017-04-10T01:21:40.431Z,22.24
2017-04-10T01:21:54.589Z,22.16
2017-04-10T01:22:08.737Z,22.22
2017-04-10T01:22:22.883Z,22.2
2017-04-10T01:22:37.074Z,22.22
2017-04-10T01:22:51.234Z,22.18
2017-04-10T01:23:37.110Z,22.24
2017-04-10T01:23:51.261Z,22.31
2017-04-10T01:24:05.420Z,22.27
2017-04-10T01:24:19.554Z,22.34
2017-04-10T01:24:33.651Z,22.38
2017-04-10T01:24:47.841Z,22.23
2017-04-10T01:25:33.015Z,22.23
2017-04-10T01:25:47.190Z,22.22
2017-04-10T01:26:01.354Z,22.24
2017-04-10T01:26:15.492Z,22.26
2017-04-10T01:26:29.825Z,22.23
2017-04-10T01:26:43.937Z,22.22
2017-04-10T01:28:14.458Z,22.23
2017-04-10T01:29:01.224Z,22.29
2017-04-10T01:29:15.656Z,22.2
2017-04-10T01:30:14.929Z,22.16
2017-04-10T01:30:29.141Z,22.14
2017-04-10T01:30:43.327Z,22.22
2017-04-10T01:31:28.537Z,22.09
2017-04-10T01:31:42.665Z,22.12
2017-04-10T01:31:56.783Z,22.11
2017-04-10T01:32:11.581Z,22.11
2017-04-10T01:32:56.674Z,22.07
2017-04-10T01:33:10.870Z,22.08
2017-04-10T01:35:01.097Z,21.82
2017-04-10T01:35:15.241Z,21.93
2017-04-10T01:35:29.461Z,21.9
2017-04-10T01:35:43.619Z,21.92
2017-04-10T01:36:59.719Z,21.73
2017-04-10T01:37:13.895Z,21.78
2017-04-10T01:37:28.038Z,21.77
2017-04-10T01:37:42.440Z,21.76
2017-04-10T01:37:56.579Z,21.71
2017-04-10T01:38:10.792Z,21.8
2017-04-10T01:38:24.982Z,21.77
2017-04-10T01:38:39.154Z,21.76
2017-04-10T01:38:53.465Z,21.8
2017-04-10T01:39:39.294Z,21.9
2017-04-10T01:39:53.409Z,21.83
2017-04-10T01:40:07.522Z,21.82
2017-04-10T01:40:21.710Z,21.9
2017-04-10T01:40:35.850Z,21.89
2017-04-10T01:40:50.010Z,21.92
2017-04-10T01:41:04.176Z,21.9
2017-04-10T01:41:18.340Z,21.83
2017-04-10T01:41:32.456Z,21.8
2017-04-10T01:41:46.564Z,21.85
2017-04-10T01:42:00.676Z,21.9
2017-04-10T01:42:14.839Z,21.86
2017-04-10T01:42:29.016Z,21.89
2017-04-10T01:42:43.796Z,21.89
2017-04-10T01:42:58.011Z,21.86
2017-04-10T01:43:12.156Z,21.86
2017-04-10T01:43:26.311Z,21.89
2017-04-10T01:44:11.448Z,21.9
2017-04-10T01:44:25.612Z,21.97
2017-04-10T01:44:39.772Z,21.99
2017-04-10T01:44:53.888Z,21.96
2017-04-10T01:45:08.044Z,22
2017-04-10T01:45:22.252Z,21.97
2017-04-10T01:46:21.557Z,22.02
2017-04-10T01:46:35.696Z,22
2017-04-10T01:47:20.855Z,21.99
2017-04-10T01:47:35.007Z,22
2017-04-10T01:47:49.140Z,22.04
2017-04-10T01:48:03.302Z,22.04
2017-04-10T01:48:17.450Z,22.04
2017-04-10T01:48:31.581Z,21.93
2017-04-10T01:48:45.771Z,22.04
2017-04-10T01:48:59.910Z,22.08
2017-04-10T01:49:14.026Z,22.09
2017-04-10T01:49:28.161Z,22.08
2017-04-10T01:49:42.344Z,22.15
2017-04-10T01:50:27.469Z,22.09
2017-04-10T01:50:41.583Z,22.08
2017-04-10T01:50:55.733Z,22.12
2017-04-10T01:51:09.852Z,22.08
2017-04-10T01:51:24.010Z,22.09
2017-04-10T01:51:39.396Z,22.07
2017-04-10T01:52:56.008Z,22.07
2017-04-10T01:53:10.169Z,22.02
2017-04-10T01:53:24.278Z,22.04
2017-04-10T01:53:38.429Z,22.04
2017-04-10T01:53:52.571Z,21.99
2017-04-10T01:54:06.663Z,21.99
2017-04-10T01:54:51.989Z,21.92
2017-04-10T01:55:06.132Z,22.02
2017-04-10T01:55:20.294Z,21.93
2017-04-10T01:55:34.476Z,22
2017-04-10T01:55:48.592Z,22.02
2017-04-10T01:56:02.771Z,21.99
2017-04-10T01:56:16.950Z,22.04
2017-04-10T01:56:31.051Z,21.97
2017-04-10T01:56:45.200Z,21.97
2017-04-10T01:57:14.847Z,22.02
2017-04-10T01:57:28.998Z,22
2017-04-10T01:58:18.444Z,21.93
2017-04-10T01:58:32.627Z,21.97
2017-04-10T01:58:46.834Z,22
2017-04-10T01:59:01.008Z,21.94
2017-04-10T01:59:15.112Z,21.97
2017-04-10T01:59:29.274Z,21.93
2017-04-10T02:00:02.620Z,21.96
2017-04-10T02:00:48.241Z,21.86
2017-04-10T02:01:33.326Z,21.82
2017-04-10T02:01:47.502Z,21.86
2017-04-10T02:02:01.690Z,21.85
2017-04-10T02:02:15.835Z,21.9
2017-04-10T02:02:30.015Z,21.89
2017-04-10T02:02:44.143Z,21.83
2017-04-10T02:02:58.317Z,21.9
2017-04-10T02:03:12.496Z,21.92
2017-04-10T02:03:26.643Z,21.92
2017-04-10T02:03:40.807Z,21.85
2017-04-10T02:03:54.929Z,21.89
2017-04-10T02:04:09.169Z,21.86
2017-04-10T02:04:23.500Z,21.89
2017-04-10T02:04:37.641Z,21.93
2017-04-10T02:04:51.783Z,21.9
2017-04-10T02:05:37.267Z,21.92
2017-04-10T02:05:51.399Z,21.89
2017-04-10T02:06:50.683Z,21.89
2017-04-10T02:07:04.755Z,21.92
2017-04-10T02:07:55.116Z,21.82
2017-04-10T02:08:09.268Z,21.86
2017-04-10T02:08:23.422Z,21.94
2017-04-10T02:08:37.619Z,21.9
2017-04-10T02:08:51.758Z,21.9
2017-04-10T02:09:05.907Z,21.89
2017-04-10T02:09:51.060Z,21.89
2017-04-10T02:10:36.213Z,21.94
2017-04-10T02:11:21.611Z,21.9
2017-04-10T02:11:35.743Z,21.93
2017-04-10T02:11:49.842Z,21.89
2017-04-10T02:12:04.005Z,21.93
2017-04-10T02:12:18.206Z,21.89
2017-04-10T02:12:34.359Z,21.9
2017-04-10T02:12:48.585Z,21.9
2017-04-10T02:13:39.002Z,21.83
2017-04-10T02:13:53.261Z,21.82
2017-04-10T02:14:41.655Z,21.85
2017-04-10T02:14:55.773Z,21.94
2017-04-10T02:15:09.990Z,21.89
2017-04-10T02:15:24.160Z,21.93
2017-04-10T02:15:38.288Z,21.92
2017-04-10T02:15:52.425Z,21.96
2017-04-10T02:16:06.595Z,21.86
2017-04-10T02:16:51.743Z,21.86
2017-04-10T02:17:05.915Z,21.86
2017-04-10T02:17:20.033Z,21.94
2017-04-10T02:17:34.187Z,21.9
2017-04-10T02:17:48.347Z,21.96
2017-04-10T02:18:02.477Z,21.83
2017-04-10T02:18:16.579Z,21.9
2017-04-10T02:18:30.747Z,21.97
2017-04-10T02:18:44.861Z,21.96
2017-04-10T02:18:58.982Z,21.99
2017-04-10T02:19:13.102Z,21.94
2017-04-10T02:19:27.229Z,21.89
2017-04-10T02:19:41.402Z,21.9
2017-04-10T02:19:55.590Z,21.89
2017-04-10T02:20:09.738Z,21.9
2017-04-10T02:20:23.870Z,21.82
2017-04-10T02:21:08.981Z,21.89
2017-04-10T02:22:05.012Z,21.92
2017-04-10T02:22:19.170Z,21.85
2017-04-10T02:22:33.925Z,21.9
2017-04-10T02:23:19.031Z,21.9
2017-04-10T02:24:04.169Z,21.86
2017-04-10T02:24:18.317Z,21.86
2017-04-10T02:24:32.494Z,21.83
2017-04-10T02:24:46.622Z,21.89
2017-04-10T02:25:00.953Z,21.78
2017-04-10T02:25:15.114Z,21.85
2017-04-10T02:25:29.277Z,21.89
2017-04-10T02:25:43.449Z,21.82
2017-04-10T02:25:57.547Z,21.8
2017-04-10T02:26:11.906Z,21.8
2017-04-10T02:26:26.110Z,21.85
2017-04-10T02:26:40.465Z,21.86
2017-04-10T02:26:54.566Z,21.76
2017-04-10T02:27:41.367Z,21.78
2017-04-10T02:27:55.524Z,21.77
2017-04-10T02:28:09.676Z,21.7
2017-04-10T02:28:24.605Z,21.73
2017-04-10T02:28:38.808Z,21.8
2017-04-10T02:28:53.061Z,21.76
2017-04-10T02:29:07.184Z,21.73
2017-04-10T02:29:21.335Z,21.73
2017-04-10T02:29:35.523Z,21.74
2017-04-10T02:29:49.645Z,21.7
2017-04-10T02:30:03.816Z,21.77
2017-04-10T02:30:17.962Z,21.74
2017-04-10T02:30:34.346Z,21.76
2017-04-10T02:30:49.254Z,21.7
2017-04-10T02:31:03.357Z,21.74
2017-04-10T02:31:17.510Z,21.62
2017-04-10T02:31:41.930Z,21.71
2017-04-10T02:32:29.754Z,21.66
2017-04-10T02:32:43.884Z,21.71
2017-04-10T02:32:58.052Z,21.68
2017-04-10T02:33:43.154Z,21.64
2017-04-10T02:33:57.336Z,21.68
2017-04-10T02:34:11.410Z,21.74
2017-04-10T02:34:25.503Z,21.73
2017-04-10T02:34:39.612Z,21.74
2017-04-10T02:34:53.767Z,21.73
2017-04-10T02:35:07.878Z,21.7
2017-04-10T02:35:21.977Z,21.7
2017-04-10T02:35:36.161Z,21.76
2017-04-10T02:35:51.028Z,21.8
2017-04-10T02:36:20.746Z,21.71
2017-04-10T02:36:34.931Z,21.74
2017-04-10T02:37:25.314Z,21.73
2017-04-10T02:38:12.126Z,21.71
2017-04-10T02:39:00.574Z,21.67
2017-04-10T02:39:14.701Z,21.73
2017-04-10T02:39:29.516Z,21.74
2017-04-10T02:39:43.613Z,21.68
2017-04-10T02:39:57.769Z,21.73
2017-04-10T02:40:11.931Z,21.7
2017-04-10T02:40:26.060Z,21.7
2017-04-10T02:40:40.207Z,21.73
2017-04-10T02:40:56.359Z,21.74
2017-04-10T02:41:32.432Z,21.73
2017-04-10T02:41:46.604Z,21.74
2017-04-10T02:42:31.753Z,21.76
2017-04-10T02:42:45.948Z,21.66
2017-04-10T02:43:00.935Z,21.78
2017-04-10T02:43:15.058Z,21.77
2017-04-10T02:43:29.185Z,21.7
2017-04-10T02:43:43.328Z,21.74
2017-04-10T02:43:57.475Z,21.83
2017-04-10T02:44:30.844Z,21.76
2017-04-10T02:44:45.811Z,21.85
2017-04-10T02:45:00.188Z,21.86
2017-04-10T02:45:35.015Z,21.82
2017-04-10T02:45:49.131Z,21.83
2017-04-10T02:46:48.444Z,21.73
2017-04-10T02:47:02.547Z,21.76
2017-04-10T02:47:16.688Z,21.73
2017-04-10T02:47:30.830Z,21.7
2017-04-10T02:47:45.022Z,21.73
2017-04-10T02:47:59.172Z,21.76
2017-04-10T02:48:13.381Z,21.77
2017-04-10T02:48:27.491Z,21.7
2017-04-10T02:49:12.680Z,21.64
2017-04-10T02:49:26.832Z,21.73
2017-04-10T02:49:41.044Z,21.74
2017-04-10T02:49:55.188Z,21.73
2017-04-10T02:50:09.290Z,21.74
2017-04-10T02:50:23.495Z,21.71
2017-04-10T02:51:08.863Z,21.74
2017-04-10T02:51:23.011Z,21.73
2017-04-10T02:51:37.221Z,21.74
2017-04-10T02:51:51.605Z,21.73
2017-04-10T02:52:06.564Z,21.78
2017-04-10T02:52:20.661Z,21.74
2017-04-10T02:52:34.843Z,21.7
2017-04-10T02:52:48.998Z,21.74
2017-04-10T02:54:31.998Z,21.61
2017-04-10T02:54:56.830Z,21.62
2017-04-10T02:55:11.000Z,21.67
2017-04-10T02:55:48.220Z,21.68
2017-04-10T02:56:02.389Z,21.64
2017-04-10T02:56:16.525Z,21.68
2017-04-10T02:56:30.654Z,21.66
2017-04-10T02:56:45.051Z,21.71
2017-04-10T02:56:59.186Z,21.7
2017-04-10T02:57:13.309Z,21.66
2017-04-10T02:57:27.466Z,21.62
2017-04-10T02:57:41.587Z,21.64
2017-04-10T02:57:55.708Z,21.58
2017-04-10T02:58:09.870Z,21.67
2017-04-10T02:58:24.039Z,21.56
2017-04-10T02:58:38.224Z,21.61
2017-04-10T02:58:52.354Z,21.64
2017-04-10T02:59:06.481Z,21.62
2017-04-10T02:59:33.382Z,21.62
2017-04-10T02:59:48.302Z,21.56
2017-04-10T03:00:59.548Z,21.59
2017-04-10T03:01:13.765Z,21.58
2017-04-10T03:01:27.889Z,21.62
2017-04-10T03:01:42.026Z,21.59
2017-04-10T03:01:56.169Z,21.59
2017-04-10T03:02:41.348Z,21.66
2017-04-10T03:02:55.492Z,21.62
2017-04-10T03:03:09.625Z,21.68
2017-04-10T03:03:23.771Z,21.67
2017-04-10T03:03:37.988Z,21.7
2017-04-10T03:03:52.161Z,21.67
2017-04-10T03:04:06.250Z,21.67
2017-04-10T03:04:20.404Z,21.64
2017-04-10T03:04:34.517Z,21.61
2017-04-10T03:04:58.947Z,21.64
2017-04-10T03:05:13.859Z,21.66
2017-04-10T03:05:28.014Z,21.67
2017-04-10T03:05:48.435Z,21.53
2017-04-10T03:06:03.402Z,21.64
2017-04-10T03:06:17.566Z,21.61
2017-04-10T03:06:31.717Z,21.64
2017-04-10T03:06:48.918Z,21.59
2017-04-10T03:07:03.080Z,21.68
2017-04-10T03:07:17.181Z,21.62
2017-04-10T03:07:41.604Z,21.66
2017-04-10T03:07:57.023Z,21.58
2017-04-10T03:08:11.232Z,21.59
2017-04-10T03:08:25.413Z,21.62
2017-04-10T03:09:17.045Z,21.67
2017-04-10T03:09:31.215Z,21.62
2017-04-10T03:09:45.348Z,21.64
2017-04-10T03:09:59.442Z,21.59
2017-04-10T03:10:13.596Z,21.55
2017-04-10T03:10:27.738Z,21.68
2017-04-10T03:10:41.918Z,21.62
2017-04-10T03:11:22.429Z,21.66
2017-04-10T03:11:36.568Z,21.71
2017-04-10T03:11:50.996Z,21.58
2017-04-10T03:12:05.151Z,21.66
2017-04-10T03:12:19.341Z,21.61
2017-04-10T03:12:33.496Z,21.68
2017-04-10T03:12:47.640Z,21.68
2017-04-10T03:13:01.967Z,21.71
2017-04-10T03:13:16.132Z,21.71
2017-04-10T03:13:30.327Z,21.74
2017-04-10T03:13:44.479Z,21.74
2017-04-10T03:13:58.590Z,21.74
2017-04-10T03:14:12.733Z,21.73
2017-04-10T03:14:26.961Z,21.66
2017-04-10T03:15:16.615Z,21.7
2017-04-10T03:15:30.859Z,21.7
2017-04-10T03:15:44.994Z,21.78
2017-04-10T03:15:59.149Z,21.77
2017-04-10T03:16:13.286Z,21.82
2017-04-10T03:16:30.471Z,21.77
2017-04-10T03:16:44.652Z,21.7
2017-04-10T03:16:58.817Z,21.71
2017-04-10T03:17:39.408Z,21.73
2017-04-10T03:17:53.563Z,21.76
2017-04-10T03:18:07.759Z,21.74
2017-04-10T03:18:21.921Z,21.76
2017-04-10T03:19:07.066Z,21.67
2017-04-10T03:19:21.515Z,21.7
2017-04-10T03:19:35.841Z,21.73
2017-04-10T03:19:49.936Z,21.73
2017-04-10T03:20:35.038Z,21.67
2017-04-10T03:20:49.110Z,21.67
2017-04-10T03:21:03.247Z,21.67
2017-04-10T03:21:17.401Z,21.68
2017-04-10T03:21:31.511Z,21.64
2017-04-10T03:21:45.720Z,21.64
2017-04-10T03:21:59.835Z,21.67
2017-04-10T03:22:13.991Z,21.68
2017-04-10T03:22:38.450Z,21.71
2017-04-10T03:22:52.597Z,21.73
2017-04-10T03:23:32.474Z,21.76
2017-04-10T03:23:46.629Z,21.76
2017-04-10T03:24:31.783Z,21.82
2017-04-10T03:24:45.979Z,21.86
2017-04-10T03:25:00.142Z,21.86
2017-04-10T03:25:14.278Z,21.85
2017-04-10T03:25:28.421Z,21.89
2017-04-10T03:25:42.509Z,21.74
2017-04-10T03:25:56.626Z,21.74
2017-04-10T03:26:11.548Z,21.74
2017-04-10T03:26:25.694Z,21.71
2017-04-10T03:26:39.784Z,21.85
2017-04-10T03:26:53.893Z,21.82
2017-04-10T03:27:08.280Z,21.9
2017-04-10T03:27:22.404Z,21.83
2017-04-10T03:27:36.547Z,21.83
2017-04-10T03:28:22.741Z,21.85
2017-04-10T03:28:36.878Z,21.78
2017-04-10T03:28:51.042Z,21.8
2017-04-10T03:29:05.191Z,21.78
2017-04-10T03:29:19.353Z,21.78
2017-04-10T03:29:33.520Z,21.74
2017-04-10T03:29:47.914Z,21.7
2017-04-10T03:30:02.091Z,21.68
2017-04-10T03:30:16.231Z,21.74
2017-04-10T03:30:30.557Z,21.73
2017-04-10T03:30:44.747Z,21.74
2017-04-10T03:30:58.850Z,21.73
2017-04-10T03:31:19.338Z,21.74
2017-04-10T03:31:53.336Z,21.74
2017-04-10T03:32:07.452Z,21.73
2017-04-10T03:32:21.593Z,21.73
2017-04-10T03:32:35.703Z,21.76
2017-04-10T03:32:49.854Z,21.68
2017-04-10T03:33:04.013Z,21.73
2017-04-10T03:33:18.117Z,21.64
2017-04-10T03:33:32.317Z,21.68
2017-04-10T03:33:46.444Z,21.74
2017-04-10T03:34:00.601Z,21.74
2017-04-10T03:34:14.808Z,21.71
2017-04-10T03:34:29.001Z,21.66
2017-04-10T03:34:43.183Z,21.68
2017-04-10T03:34:57.331Z,21.67
2017-04-10T03:35:11.489Z,21.7
2017-04-10T03:35:25.681Z,21.62
2017-04-10T03:35:39.829Z,21.71
2017-04-10T03:35:53.999Z,21.7
2017-04-10T03:36:08.167Z,21.66
2017-04-10T03:36:22.287Z,21.67
2017-04-10T03:36:36.438Z,21.71
2017-04-10T03:36:50.619Z,21.66
2017-04-10T03:37:04.872Z,21.76
2017-04-10T03:37:19.010Z,21.76
2017-04-10T03:37:33.224Z,21.73
2017-04-10T03:37:47.327Z,21.71
2017-04-10T03:38:01.490Z,21.71
2017-04-10T03:38:15.700Z,21.73
2017-04-10T03:38:29.884Z,21.7
2017-04-10T03:38:44.059Z,21.71
2017-04-10T03:38:58.201Z,21.67
2017-04-10T03:39:12.276Z,21.64
2017-04-10T03:39:26.426Z,21.73
2017-04-10T03:39:40.600Z,21.71
2017-04-10T03:39:54.740Z,21.58
2017-04-10T03:40:08.853Z,21.67
2017-04-10T03:40:23.013Z,21.64
2017-04-10T03:40:37.458Z,21.62
2017-04-10T03:40:51.619Z,21.67
2017-04-10T03:41:06.019Z,21.62
2017-04-10T03:41:20.178Z,21.64
2017-04-10T03:41:34.346Z,21.61
2017-04-10T03:41:48.482Z,21.64
2017-04-10T03:42:02.842Z,21.62
2017-04-10T03:42:16.998Z,21.59
2017-04-10T03:42:31.191Z,21.61
2017-04-10T03:42:45.372Z,21.62
2017-04-10T03:42:59.547Z,21.66
2017-04-10T03:43:13.720Z,21.64
2017-04-10T03:43:27.822Z,21.61
2017-04-10T03:43:42.006Z,21.55
2017-04-10T03:43:56.228Z,21.61
2017-04-10T03:44:10.341Z,21.66
2017-04-10T03:44:24.493Z,21.62
2017-04-10T03:44:38.656Z,21.59
2017-04-10T03:44:52.806Z,21.58
2017-04-10T03:45:06.997Z,21.62
2017-04-10T03:45:21.194Z,21.55
2017-04-10T03:45:35.579Z,21.56
2017-04-10T03:45:49.767Z,21.56
2017-04-10T03:46:03.934Z,21.59
2017-04-10T03:46:18.174Z,21.55
2017-04-10T03:46:32.368Z,21.62
2017-04-10T03:46:46.531Z,21.62
2017-04-10T03:47:00.750Z,21.62
2017-04-10T03:47:14.863Z,21.52
2017-04-10T03:47:28.965Z,21.55
2017-04-10T03:47:43.133Z,21.55
2017-04-10T03:47:57.293Z,21.56
2017-04-10T03:48:11.454Z,21.53
2017-04-10T03:48:25.596Z,21.61
2017-04-10T03:48:39.706Z,21.52
2017-04-10T03:48:53.814Z,21.59
2017-04-10T03:49:07.951Z,21.61
2017-04-10T03:49:22.015Z,21.64
2017-04-10T03:49:36.199Z,21.62
2017-04-10T03:49:50.381Z,21.59
2017-04-10T03:50:04.549Z,21.62
2017-04-10T03:50:18.719Z,21.61
2017-04-10T03:50:33.600Z,21.59
2017-04-10T03:50:47.781Z,21.67
2017-04-10T03:51:01.926Z,21.68
2017-04-10T03:51:16.187Z,21.64
2017-04-10T03:51:30.444Z,21.61
2017-04-10T03:51:44.586Z,21.61
2017-04-10T03:51:58.783Z,21.59
2017-04-10T03:52:12.967Z,21.61
2017-04-10T03:52:27.118Z,21.59
2017-04-10T03:52:41.316Z,21.64
2017-04-10T03:52:55.454Z,21.67
2017-04-10T03:53:09.576Z,21.59
2017-04-10T03:53:23.744Z,21.61
2017-04-10T03:53:37.855Z,21.61
2017-04-10T03:53:51.998Z,21.59
2017-04-10T03:54:06.178Z,21.62
2017-04-10T03:54:20.299Z,21.58
2017-04-10T03:54:34.462Z,21.62
2017-04-10T03:54:48.587Z,21.66
2017-04-10T03:55:02.706Z,21.64
2017-04-10T03:55:16.867Z,21.67
2017-04-10T03:55:31.022Z,21.71
2017-04-10T03:55:45.153Z,21.71
2017-04-10T03:55:59.253Z,21.73
2017-04-10T03:56:13.472Z,21.71
2017-04-10T03:56:27.678Z,21.76
2017-04-10T03:56:41.876Z,21.7
2017-04-10T03:56:56.011Z,21.73
2017-04-10T03:57:10.363Z,21.78
2017-04-10T03:57:24.507Z,21.89
2017-04-10T03:57:38.718Z,21.82
2017-04-10T03:57:52.897Z,21.7
2017-04-10T03:58:07.061Z,21.77
2017-04-10T03:58:21.163Z,21.85
2017-04-10T03:58:35.355Z,21.71
2017-04-10T03:58:49.457Z,21.77
2017-04-10T03:59:03.590Z,21.76
2017-04-10T03:59:17.770Z,21.74
2017-04-10T03:59:31.928Z,21.74
2017-04-10T03:59:46.107Z,21.74
2017-04-10T04:00:00.227Z,21.74
2017-04-10T04:00:14.395Z,21.74
2017-04-10T04:00:28.532Z,21.8
2017-04-10T04:00:42.692Z,21.74
2017-04-10T04:00:56.812Z,21.73
2017-04-10T04:01:10.930Z,21.73
2017-04-10T04:01:25.061Z,21.73
2017-04-10T04:01:39.229Z,21.76
2017-04-10T04:01:53.364Z,21.78
2017-04-10T04:02:07.507Z,21.77
2017-04-10T04:02:21.655Z,21.77
2017-04-10T04:02:35.796Z,21.92
2017-04-10T04:02:49.884Z,21.82
2017-04-10T04:03:04.041Z,21.85
2017-04-10T04:03:18.221Z,21.92
2017-04-10T04:03:32.365Z,21.82
2017-04-10T04:03:46.591Z,21.85
2017-04-10T04:04:00.747Z,21.83
2017-04-10T04:04:14.835Z,21.89
2017-04-10T04:04:28.942Z,21.89
2017-04-10T04:04:43.091Z,21.92
2017-04-10T04:04:57.208Z,21.86
2017-04-10T04:05:11.369Z,21.9
2017-04-10T04:05:25.534Z,21.99
2017-04-10T04:05:39.668Z,21.92
2017-04-10T04:05:53.791Z,21.97
2017-04-10T04:06:07.919Z,21.92
2017-04-10T04:06:22.083Z,21.97
2017-04-10T04:06:36.318Z,21.93
2017-04-10T04:06:50.476Z,21.96
2017-04-10T04:07:04.663Z,21.94
2017-04-10T04:07:18.770Z,21.9
2017-04-10T04:07:32.903Z,21.94
2017-04-10T04:07:47.079Z,22.02
2017-04-10T04:08:01.222Z,21.9
2017-04-10T04:08:15.353Z,21.94
2017-04-10T04:08:29.450Z,21.85
2017-04-10T04:08:43.580Z,21.9
2017-04-10T04:08:57.684Z,21.86
2017-04-10T04:09:11.814Z,21.89
2017-04-10T04:09:25.962Z,21.9
2017-04-10T04:09:40.133Z,21.89
2017-04-10T04:09:54.320Z,21.9
2017-04-10T04:10:08.469Z,21.9
2017-04-10T04:10:22.593Z,21.89
2017-04-10T04:10:36.760Z,21.9
2017-04-10T04:10:50.945Z,21.86
2017-04-10T04:11:05.097Z,21.86
2017-04-10T04:11:19.297Z,21.92
2017-04-10T04:11:33.511Z,21.78
2017-04-10T04:11:47.609Z,21.74
2017-04-10T04:12:01.724Z,21.74
2017-04-10T04:12:16.121Z,21.71
2017-04-10T04:12:30.246Z,21.74
2017-04-10T04:12:44.411Z,21.66
2017-04-10T04:12:58.506Z,21.68
2017-04-10T04:13:12.663Z,21.7
2017-04-10T04:13:27.518Z,21.58